createdAt,value
2023-04-02T00:01:38.704Z,75.09
2023-04-02T00:04:09.762Z,75.01
2023-04-02T00:06:40.759Z,74.85
2023-04-02T00:08:51.300Z,74.74
2023-04-02T00:11:03.403Z,74.78
2023-04-02T00:13:27.448Z,73.75
2023-04-02T00:15:39.432Z,73.86
2023-04-02T00:17:49.793Z,73.75
2023-04-02T00:20:06.898Z,74.52
2023-04-02T00:22:22.762Z,74.08
2023-04-02T00:24:32.716Z,73.66
2023-04-02T00:26:46.282Z,73.74
2023-04-02T00:28:56.175Z,74.11
2023-04-02T00:31:06.182Z,73.80
2023-04-02T00:33:21.812Z,72.49
2023-04-02T00:35:33.137Z,71.67
2023-04-02T00:37:43.934Z,71.67
2023-04-02T00:39:57.733Z,71.09
2023-04-02T00:42:08.823Z,70.57
2023-04-02T00:44:22.503Z,69.53
2023-04-02T00:46:47.529Z,69.79
2023-04-02T00:49:03.284Z,70.26
2023-04-02T00:51:21.995Z,70.41
2023-04-02T00:53:33.573Z,70.72
2023-04-02T00:55:44.926Z,70.25
2023-04-02T00:57:57.023Z,70.95
2023-04-02T01:00:21.908Z,71.12
2023-04-02T01:02:36.087Z,71.27
2023-04-02T01:04:53.985Z,71.68
2023-04-02T01:07:07.003Z,72.13
2023-04-02T01:09:31.062Z,72.07
2023-04-02T01:11:56.140Z,72.26
2023-04-02T01:14:14.902Z,72.17
2023-04-02T01:16:36.922Z,72.59
2023-04-02T01:18:57.640Z,72.70
2023-04-02T01:21:34.773Z,72.25
2023-04-02T01:23:55.170Z,72.13
2023-04-02T01:26:15.220Z,72.20
2023-04-02T01:28:30.339Z,72.03
2023-04-02T01:30:42.200Z,72.04
2023-04-02T01:32:52.583Z,72.17
2023-04-02T01:35:03.163Z,72.44
2023-04-02T01:37:32.895Z,72.71
2023-04-02T01:39:56.288Z,72.93
2023-04-02T01:42:19.865Z,72.82
2023-04-02T01:44:37.951Z,72.83
2023-04-02T01:46:54.099Z,72.99
2023-04-02T01:49:13.849Z,72.76
2023-04-02T01:51:32.437Z,72.99
2023-04-02T01:53:47.239Z,73.04
2023-04-02T01:56:05.611Z,73.50
2023-04-02T01:58:21.277Z,73.78
2023-04-02T02:00:34.984Z,73.80
2023-04-02T02:02:52.484Z,73.81
2023-04-02T02:05:05.206Z,73.48
2023-04-02T02:07:24.145Z,73.54
2023-04-02T02:09:46.365Z,73.54
2023-04-02T02:12:08.368Z,73.60
2023-04-02T02:14:48.236Z,73.76
2023-04-02T02:17:01.009Z,73.93
2023-04-02T02:19:30.324Z,74.07
2023-04-02T02:21:48.046Z,74.27
2023-04-02T02:24:19.450Z,74.52
2023-04-02T02:26:31.940Z,74.83
2023-04-02T02:28:48.422Z,74.48
2023-04-02T02:31:04.453Z,74.15
2023-04-02T02:33:22.742Z,73.74
2023-04-02T02:35:40.342Z,73.75
2023-04-02T02:37:57.632Z,74.05
2023-04-02T02:40:14.801Z,74.29
2023-04-02T02:42:30.691Z,74.45
2023-04-02T02:44:47.627Z,74.34
2023-04-02T02:47:02.768Z,74.40
2023-04-02T02:49:18.709Z,74.28
2023-04-02T02:51:32.769Z,74.33
2023-04-02T02:53:52.229Z,74.41
2023-04-02T02:56:04.608Z,74.52
2023-04-02T02:58:24.087Z,74.48
2023-04-02T03:00:44.449Z,74.43
2023-04-02T03:02:57.454Z,74.41
2023-04-02T03:05:11.537Z,74.40
2023-04-02T03:07:26.183Z,74.58
2023-04-02T03:09:47.895Z,74.59
2023-04-02T03:12:04.730Z,74.57
2023-04-02T03:14:24.913Z,74.62
2023-04-02T03:16:41.793Z,74.61
2023-04-02T03:18:56.650Z,74.82
2023-04-02T03:21:14.668Z,74.66
2023-04-02T03:23:29.496Z,74.83
2023-04-02T03:25:46.964Z,75.10
2023-04-02T03:28:04.135Z,75.19
2023-04-02T03:30:29.428Z,75.41
2023-04-02T03:32:44.406Z,76.28
2023-04-02T03:34:57.681Z,76.41
2023-04-02T03:37:16.529Z,76.84
2023-04-02T03:39:33.749Z,77.30
2023-04-02T03:41:46.877Z,77.44
2023-04-02T03:44:03.520Z,77.10
2023-04-02T03:46:17.714Z,76.89
2023-04-02T03:48:33.441Z,77.14
2023-04-02T03:50:50.150Z,77.20
2023-04-02T03:53:01.433Z,77.11
2023-04-02T03:55:18.496Z,76.73
2023-04-02T03:57:33.562Z,76.62
2023-04-02T03:59:52.208Z,76.64
2023-04-02T04:02:10.082Z,76.66
2023-04-02T04:04:22.301Z,76.79
2023-04-02T04:06:34.653Z,76.54
2023-04-02T04:08:47.016Z,76.61
2023-04-02T04:10:59.601Z,76.54
2023-04-02T04:13:09.400Z,76.63
2023-04-02T04:15:27.377Z,76.79
2023-04-02T04:17:50.425Z,76.85
2023-04-02T04:20:08.835Z,76.78
2023-04-02T04:22:33.399Z,76.82
2023-04-02T04:24:53.768Z,76.96
2023-04-02T04:27:10.539Z,76.99
2023-04-02T04:29:41.455Z,77.26
2023-04-02T04:31:55.987Z,77.54
2023-04-02T04:34:16.934Z,77.40
2023-04-02T04:36:31.044Z,77.37
2023-04-02T04:39:00.125Z,77.54
2023-04-02T04:41:18.500Z,77.36
2023-04-02T04:43:40.119Z,77.30
2023-04-02T04:45:55.186Z,77.13
2023-04-02T04:48:11.651Z,77.13
2023-04-02T04:50:31.741Z,77.06
2023-04-02T04:52:44.874Z,76.99
2023-04-02T04:54:56.964Z,76.94
2023-04-02T04:57:22.699Z,76.78
2023-04-02T04:59:37.097Z,76.86
2023-04-02T05:01:52.596Z,76.77
2023-04-02T05:04:11.691Z,77.13
2023-04-02T05:06:36.558Z,77.66
2023-04-02T05:08:51.294Z,77.61
2023-04-02T05:11:04.528Z,78.34
2023-04-02T05:13:22.957Z,78.35
2023-04-02T05:15:36.812Z,78.32
2023-04-02T05:17:54.183Z,78.38
2023-04-02T05:20:10.315Z,79.38
2023-04-02T05:22:29.684Z,79.33
2023-04-02T05:24:49.932Z,79.04
2023-04-02T05:27:03.035Z,79.21
2023-04-02T05:29:21.347Z,79.33
2023-04-02T05:31:40.154Z,79.38
2023-04-02T05:33:52.148Z,79.40
2023-04-02T05:36:06.465Z,79.48
2023-04-02T05:38:25.798Z,79.46
2023-04-02T05:40:39.699Z,79.64
2023-04-02T05:42:56.143Z,80.27
2023-04-02T05:45:20.263Z,80.71
2023-04-02T05:47:33.683Z,81.45
2023-04-02T05:49:51.391Z,81.44
2023-04-02T05:52:06.361Z,82.06
2023-04-02T05:54:26.599Z,81.33
2023-04-02T05:56:43.753Z,80.82
2023-04-02T05:58:59.156Z,80.54
2023-04-02T06:01:28.820Z,81.02
2023-04-02T06:03:49.884Z,81.33
2023-04-02T06:06:08.690Z,81.54
2023-04-02T06:08:24.377Z,81.53
2023-04-02T06:10:39.521Z,81.85
2023-04-02T06:12:54.104Z,82.25
2023-04-02T06:15:04.140Z,82.18
2023-04-02T06:17:17.813Z,82.41
2023-04-02T06:19:33.364Z,82.81
2023-04-02T06:21:50.871Z,82.81
2023-04-02T06:24:07.472Z,83.36
2023-04-02T06:26:24.799Z,83.57
2023-04-02T06:28:42.820Z,84.04
2023-04-02T06:30:55.176Z,83.43
2023-04-02T06:33:05.490Z,83.24
2023-04-02T06:35:19.454Z,83.15
2023-04-02T06:37:41.122Z,83.08
2023-04-02T06:39:56.807Z,83.16
2023-04-02T06:42:13.954Z,83.27
2023-04-02T06:44:42.853Z,83.61
2023-04-02T06:47:21.245Z,83.74
2023-04-02T06:49:41.281Z,83.83
2023-04-02T06:51:55.806Z,83.57
2023-04-02T06:54:06.146Z,83.39
2023-04-02T06:56:28.559Z,83.60
2023-04-02T06:58:38.402Z,83.53
2023-04-02T07:00:50.133Z,83.73
2023-04-02T07:03:10.770Z,83.46
2023-04-02T07:05:21.279Z,83.50
2023-04-02T07:07:31.189Z,83.28
2023-04-02T07:09:42.870Z,83.21
2023-04-02T07:11:53.746Z,83.28
2023-04-02T07:14:03.943Z,83.30
2023-04-02T07:16:18.983Z,83.07
2023-04-02T07:18:31.500Z,83.10
2023-04-02T07:20:43.513Z,83.14
2023-04-02T07:22:56.716Z,83.36
2023-04-02T07:25:06.983Z,83.15
2023-04-02T07:27:17.275Z,83.10
2023-04-02T07:29:27.187Z,83.14
2023-04-02T07:31:36.909Z,82.86
2023-04-02T07:33:47.268Z,82.74
2023-04-02T07:35:59.106Z,82.59
2023-04-02T07:38:08.846Z,82.64
2023-04-02T07:40:24.718Z,82.53
2023-04-02T07:42:34.419Z,82.54
2023-04-02T07:44:44.597Z,82.58
2023-04-02T07:46:54.506Z,82.63
2023-04-02T07:49:04.496Z,82.61
2023-04-02T07:51:22.219Z,82.61
2023-04-02T07:53:34.977Z,82.72
2023-04-02T07:55:44.989Z,82.74
2023-04-02T07:57:56.575Z,82.80
2023-04-02T08:00:08.880Z,83.19
2023-04-02T08:02:25.774Z,83.11
2023-04-02T08:04:35.901Z,83.33
2023-04-02T08:06:46.167Z,83.93
2023-04-02T08:08:56.597Z,84.77
2023-04-02T08:11:07.136Z,84.82
2023-04-02T08:13:16.600Z,84.59
2023-04-02T08:15:26.839Z,84.54
2023-04-02T08:17:37.006Z,84.69
2023-04-02T08:19:54.626Z,84.85
2023-04-02T08:22:05.029Z,84.82
2023-04-02T08:24:14.971Z,84.94
2023-04-02T08:26:24.606Z,84.97
2023-04-02T08:28:34.730Z,84.92
2023-04-02T08:30:45.445Z,84.72
2023-04-02T08:32:55.098Z,83.83
2023-04-02T08:35:05.315Z,82.88
2023-04-02T08:37:16.186Z,82.23
2023-04-02T08:39:29.875Z,81.98
2023-04-02T08:41:46.522Z,81.72
2023-04-02T08:44:13.370Z,81.71
2023-04-02T08:46:28.450Z,82.03
2023-04-02T08:48:42.743Z,82.30
2023-04-02T08:50:53.670Z,82.49
2023-04-02T08:53:04.934Z,82.69
2023-04-02T08:55:33.255Z,82.82
2023-04-02T08:57:49.580Z,82.53
2023-04-02T09:00:11.119Z,82.48
2023-04-02T09:02:33.627Z,82.31
2023-04-02T09:04:44.263Z,82.37
2023-04-02T09:06:57.123Z,82.60
2023-04-02T09:09:07.452Z,82.84
2023-04-02T09:11:26.453Z,83.32
2023-04-02T09:13:39.398Z,84.15
2023-04-02T09:15:46.901Z,85.49
2023-04-02T09:18:02.691Z,85.80
2023-04-02T09:20:19.741Z,85.21
2023-04-02T09:22:32.117Z,85.09
2023-04-02T09:24:41.876Z,85.12
2023-04-02T09:26:51.700Z,85.38
2023-04-02T09:29:21.994Z,85.39
2023-04-02T09:31:38.056Z,85.79
2023-04-02T09:33:49.770Z,85.61
2023-04-02T09:36:01.187Z,85.73
2023-04-02T09:38:22.718Z,85.58
2023-04-02T09:40:44.290Z,85.64
2023-04-02T09:43:07.666Z,85.41
2023-04-02T09:45:17.395Z,85.28
2023-04-02T09:47:29.895Z,85.05
2023-04-02T09:49:41.794Z,84.84
2023-04-02T09:52:11.318Z,84.68
2023-04-02T09:54:23.141Z,84.71
2023-04-02T09:56:33.729Z,84.72
2023-04-02T09:58:45.866Z,84.65
2023-04-02T10:00:56.758Z,84.64
2023-04-02T10:03:18.323Z,84.81
2023-04-02T10:05:39.953Z,84.87
2023-04-02T10:07:53.662Z,84.93
2023-04-02T10:10:07.175Z,84.81
2023-04-02T10:12:18.000Z,84.68
2023-04-02T10:14:31.509Z,84.58
2023-04-02T10:16:46.112Z,84.55
2023-04-02T10:18:59.402Z,84.13
2023-04-02T10:21:11.988Z,84.14
2023-04-02T10:23:24.569Z,83.98
2023-04-02T10:25:38.899Z,83.47
2023-04-02T10:27:55.549Z,83.18
2023-04-02T10:30:17.751Z,83.44
2023-04-02T10:32:32.900Z,82.93
2023-04-02T10:34:52.583Z,82.63
2023-04-02T10:37:11.682Z,82.67
2023-04-02T10:39:27.812Z,82.83
2023-04-02T10:41:44.463Z,82.84
2023-04-02T10:44:21.988Z,82.85
2023-04-02T10:46:38.692Z,82.76
2023-04-02T10:48:59.283Z,82.75
2023-04-02T10:51:16.124Z,82.78
2023-04-02T10:53:35.382Z,82.94
2023-04-02T10:55:50.512Z,83.13
2023-04-02T10:58:03.333Z,83.06
2023-04-02T11:00:22.903Z,82.95
2023-04-02T11:02:41.616Z,82.96
2023-04-02T11:04:54.852Z,82.91
2023-04-02T11:07:14.372Z,82.89
2023-04-02T11:09:28.401Z,83.05
2023-04-02T11:11:42.183Z,83.00
2023-04-02T11:13:58.425Z,83.06
2023-04-02T11:16:09.578Z,83.09
2023-04-02T11:18:36.294Z,83.17
2023-04-02T11:21:02.905Z,83.13
2023-04-02T11:23:19.197Z,83.23
2023-04-02T11:25:29.374Z,83.21
2023-04-02T11:27:39.834Z,83.29
2023-04-02T11:29:51.931Z,83.29
2023-04-02T11:32:31.203Z,83.57
2023-04-02T11:35:27.460Z,83.92
2023-04-02T11:37:41.583Z,83.92
2023-04-02T11:39:57.157Z,84.27
2023-04-02T11:42:23.973Z,84.34
2023-04-02T11:44:34.693Z,84.35
2023-04-02T11:46:51.252Z,84.55
2023-04-02T11:49:41.633Z,84.60
2023-04-02T11:52:09.120Z,84.92
2023-04-02T11:54:30.321Z,85.09
2023-04-02T11:56:46.751Z,85.38
2023-04-02T11:59:09.971Z,85.45
2023-04-02T12:01:56.257Z,85.46
2023-04-02T12:04:48.063Z,85.50
2023-04-02T12:07:18.356Z,85.52
2023-04-02T12:09:30.702Z,85.52
2023-04-02T12:11:42.491Z,85.46
2023-04-02T12:13:58.962Z,85.39
2023-04-02T12:16:11.077Z,85.46
2023-04-02T12:18:23.678Z,85.52
2023-04-02T12:20:35.113Z,85.58
2023-04-02T12:22:51.236Z,85.46
2023-04-02T12:25:04.893Z,85.41
2023-04-02T12:27:22.978Z,85.43
2023-04-02T12:29:33.882Z,85.63
2023-04-02T12:31:48.148Z,85.79
2023-04-02T12:33:58.078Z,85.60
2023-04-02T12:36:10.482Z,85.47
2023-04-02T12:38:28.307Z,85.24
2023-04-02T12:40:38.184Z,85.17
2023-04-02T12:42:48.432Z,85.28
2023-04-02T12:44:59.087Z,85.26
2023-04-02T12:47:09.645Z,85.44
2023-04-02T12:49:29.781Z,85.59
2023-04-02T12:51:40.187Z,85.59
2023-04-02T12:53:54.537Z,85.77
2023-04-02T12:56:04.988Z,85.77
2023-04-02T12:58:32.617Z,85.65
2023-04-02T13:00:43.693Z,85.61
2023-04-02T13:03:01.652Z,85.53
2023-04-02T13:05:13.348Z,85.62
2023-04-02T13:07:25.882Z,85.63
2023-04-02T13:09:37.590Z,85.55
2023-04-02T13:11:47.461Z,85.40
2023-04-02T13:14:03.128Z,85.50
2023-04-02T13:16:30.784Z,85.34
2023-04-02T13:18:42.070Z,85.27
2023-04-02T13:21:01.022Z,85.07
2023-04-02T13:23:33.039Z,85.01
2023-04-02T13:25:43.923Z,85.26
2023-04-02T13:27:54.317Z,85.29
2023-04-02T13:30:22.356Z,85.27
2023-04-02T13:32:32.525Z,85.26
2023-04-02T13:34:42.586Z,85.13
2023-04-02T13:36:52.562Z,85.18
2023-04-02T13:39:02.555Z,85.12
2023-04-02T13:41:21.561Z,85.15
2023-04-02T13:43:31.501Z,85.19
2023-04-02T13:45:43.937Z,85.15
2023-04-02T13:47:54.189Z,85.28
2023-04-02T13:50:03.979Z,85.40
2023-04-02T13:52:19.011Z,85.46
2023-04-02T13:54:35.156Z,85.63
2023-04-02T13:56:44.896Z,85.84
2023-04-02T13:58:54.932Z,85.97
2023-04-02T14:01:05.410Z,86.57
2023-04-02T14:03:20.314Z,86.62
2023-04-02T14:05:39.681Z,86.48
2023-04-02T14:07:59.262Z,86.32
2023-04-02T14:10:22.145Z,86.22
2023-04-02T14:12:53.904Z,86.16
2023-04-02T14:15:22.390Z,86.27
2023-04-02T14:17:48.283Z,86.31
2023-04-02T14:20:14.233Z,86.43
2023-04-02T14:22:39.121Z,86.24
2023-04-02T14:24:59.194Z,86.33
2023-04-02T14:27:24.763Z,86.28
2023-04-02T14:29:40.218Z,86.24
2023-04-02T14:31:57.705Z,86.34
2023-04-02T14:34:18.801Z,86.50
2023-04-02T14:36:37.321Z,86.54
2023-04-02T14:38:57.511Z,86.61
2023-04-02T14:41:13.342Z,86.80
2023-04-02T14:43:28.156Z,86.79
2023-04-02T14:45:50.772Z,87.40
2023-04-02T14:48:07.828Z,88.33
2023-04-02T14:50:21.928Z,88.10
2023-04-02T14:52:35.337Z,86.98
2023-04-02T14:54:52.459Z,86.58
2023-04-02T14:57:07.278Z,86.74
2023-04-02T14:59:29.421Z,87.60
2023-04-02T15:01:43.871Z,87.71
2023-04-02T15:04:00.293Z,88.01
2023-04-02T15:06:14.057Z,88.10
2023-04-02T15:08:28.151Z,88.35
2023-04-02T15:10:43.538Z,88.44
2023-04-02T15:12:56.161Z,88.44
2023-04-02T15:15:17.956Z,88.25
2023-04-02T15:17:31.501Z,88.10
2023-04-02T15:19:41.513Z,88.05
2023-04-02T15:22:21.083Z,87.90
2023-04-02T15:24:39.448Z,87.91
2023-04-02T15:26:59.820Z,88.06
2023-04-02T15:29:28.791Z,87.94
2023-04-02T15:31:47.936Z,88.11
2023-04-02T15:34:08.573Z,88.16
2023-04-02T15:36:43.990Z,88.14
2023-04-02T15:39:02.922Z,88.20
2023-04-02T15:41:23.808Z,88.40
2023-04-02T15:43:41.478Z,88.34
2023-04-02T15:46:00.185Z,88.65
2023-04-02T15:48:40.670Z,88.76
2023-04-02T15:51:00.852Z,88.75
2023-04-02T15:53:22.750Z,88.67
2023-04-02T15:55:41.599Z,88.62
2023-04-02T15:58:07.651Z,88.31
2023-04-02T16:00:33.818Z,88.19
2023-04-02T16:03:19.250Z,88.37
2023-04-02T16:05:40.296Z,88.27
2023-04-02T16:08:02.703Z,88.38
2023-04-02T16:10:33.944Z,88.48
2023-04-02T16:12:52.411Z,88.47
2023-04-02T16:15:13.261Z,88.52
2023-04-02T16:17:33.011Z,88.61
2023-04-02T16:19:50.544Z,88.65
2023-04-02T16:22:07.298Z,88.79
2023-04-02T16:24:17.266Z,88.71
2023-04-02T16:26:40.630Z,88.42
2023-04-02T16:29:03.326Z,88.15
2023-04-02T16:31:19.300Z,88.44
2023-04-02T16:33:38.835Z,88.86
2023-04-02T16:35:57.533Z,88.85
2023-04-02T16:38:17.430Z,88.91
2023-04-02T16:40:38.981Z,88.75
2023-04-02T16:42:57.026Z,88.89
2023-04-02T16:45:26.638Z,88.92
2023-04-02T16:47:55.760Z,88.88
2023-04-02T16:50:14.767Z,89.54
2023-04-02T16:52:36.301Z,89.74
2023-04-02T16:54:51.852Z,89.95
2023-04-02T16:57:17.511Z,89.83
2023-04-02T16:59:36.272Z,89.75
2023-04-02T17:01:55.237Z,89.96
2023-04-02T17:04:28.462Z,90.01
2023-04-02T17:06:45.509Z,90.07
2023-04-02T17:09:02.380Z,89.88
2023-04-02T17:11:18.362Z,89.29
2023-04-02T17:13:36.734Z,88.57
2023-04-02T17:15:52.830Z,86.90
2023-04-02T17:18:03.992Z,86.16
2023-04-02T17:20:20.382Z,85.91
2023-04-02T17:22:33.753Z,86.02
2023-04-02T17:24:49.885Z,86.14
2023-04-02T17:27:05.867Z,85.95
2023-04-02T17:29:21.569Z,85.95
2023-04-02T17:31:36.349Z,86.35
2023-04-02T17:33:46.292Z,86.52
2023-04-02T17:36:07.163Z,86.80
2023-04-02T17:38:24.611Z,87.11
2023-04-02T17:40:41.241Z,87.39
2023-04-02T17:43:01.577Z,87.76
2023-04-02T17:45:21.474Z,88.25
2023-04-02T17:47:38.336Z,88.40
2023-04-02T17:49:57.478Z,88.66
2023-04-02T17:52:16.350Z,88.91
2023-04-02T17:54:43.167Z,89.00
2023-04-02T17:57:14.999Z,89.02
2023-04-02T17:59:38.191Z,88.99
2023-04-02T18:01:52.972Z,89.26
2023-04-02T18:04:20.975Z,89.65
2023-04-02T18:06:39.621Z,89.61
2023-04-02T18:09:04.727Z,89.55
2023-04-02T18:11:24.094Z,89.34
2023-04-02T18:13:38.440Z,89.19
2023-04-02T18:15:58.106Z,89.43
2023-04-02T18:18:17.370Z,89.13
2023-04-02T18:20:35.535Z,88.86
2023-04-02T18:22:52.394Z,86.81
2023-04-02T18:25:32.796Z,86.87
2023-04-02T18:27:58.287Z,87.38
2023-04-02T18:30:17.821Z,88.22
2023-04-02T18:32:41.832Z,89.42
2023-04-02T18:35:04.739Z,90.56
2023-04-02T18:37:25.552Z,91.06
2023-04-02T18:39:45.237Z,91.00
2023-04-02T18:42:02.348Z,91.24
2023-04-02T18:44:29.232Z,91.18
2023-04-02T18:46:47.640Z,91.77
2023-04-02T18:49:01.384Z,91.53
2023-04-02T18:51:16.476Z,91.93
2023-04-02T18:53:28.464Z,92.35
2023-04-02T18:55:39.195Z,91.84
2023-04-02T18:57:51.860Z,91.34
2023-04-02T19:00:04.876Z,91.22
2023-04-02T19:02:39.177Z,91.70
2023-04-02T19:04:55.449Z,92.32
2023-04-02T19:07:13.897Z,92.53
2023-04-02T19:09:29.509Z,91.13
2023-04-02T19:11:39.605Z,91.67
2023-04-02T19:13:51.801Z,91.65
2023-04-02T19:16:17.470Z,91.10
2023-04-02T19:18:40.470Z,90.02
2023-04-02T19:20:55.488Z,90.04
2023-04-02T19:23:20.282Z,90.59
2023-04-02T19:25:46.999Z,91.16
2023-04-02T19:28:11.141Z,91.77
2023-04-02T19:30:39.678Z,91.59
2023-04-02T19:32:59.464Z,91.42
2023-04-02T19:35:19.170Z,90.92
2023-04-02T19:37:37.835Z,90.43
2023-04-02T19:40:09.140Z,88.84
2023-04-02T19:42:28.038Z,88.66
2023-04-02T19:44:39.828Z,88.41
2023-04-02T19:46:51.856Z,87.52
2023-04-02T19:49:03.729Z,87.10
2023-04-02T19:51:13.894Z,86.30
2023-04-02T19:53:24.430Z,86.26
2023-04-02T19:55:36.490Z,86.39
2023-04-02T19:57:46.610Z,85.09
2023-04-02T19:59:57.112Z,84.89
2023-04-02T20:02:10.762Z,84.97
2023-04-02T20:04:21.810Z,82.81
2023-04-02T20:06:32.101Z,83.36
2023-04-02T20:08:42.439Z,81.00
2023-04-02T20:10:52.355Z,80.70
2023-04-02T20:13:01.953Z,81.26
2023-04-02T20:15:13.821Z,80.71
2023-04-02T20:17:24.255Z,80.84
2023-04-02T20:19:34.214Z,81.14
2023-04-02T20:21:44.023Z,81.75
2023-04-02T20:23:56.916Z,81.84
2023-04-02T20:26:07.641Z,81.79
2023-04-02T20:28:17.365Z,80.66
2023-04-02T20:30:30.103Z,78.78
2023-04-02T20:32:41.032Z,76.37
2023-04-02T20:34:51.100Z,76.47
2023-04-02T20:37:00.936Z,77.06
2023-04-02T20:39:12.414Z,77.21
2023-04-02T20:41:23.796Z,77.99
2023-04-02T20:43:33.894Z,78.23
2023-04-02T20:45:43.996Z,78.50
2023-04-02T20:47:54.005Z,79.63
2023-04-02T20:50:04.576Z,79.54
2023-04-02T20:52:14.297Z,77.35
2023-04-02T20:54:24.515Z,77.88
2023-04-02T20:56:35.166Z,77.81
2023-04-02T20:58:45.830Z,78.08
2023-04-02T21:00:55.417Z,78.45
2023-04-02T21:03:06.011Z,77.33
2023-04-02T21:05:16.299Z,76.13
2023-04-02T21:07:26.637Z,76.58
2023-04-02T21:09:36.426Z,74.58
2023-04-02T21:11:46.869Z,72.73
2023-04-02T21:13:56.978Z,73.91
2023-04-02T21:16:13.367Z,71.36
2023-04-02T21:18:23.532Z,70.38
2023-04-02T21:20:33.833Z,67.77
2023-04-02T21:22:43.616Z,67.45
2023-04-02T21:24:53.522Z,67.30
2023-04-02T21:27:03.011Z,68.86
2023-04-02T21:29:15.080Z,70.79
2023-04-02T21:31:26.395Z,71.39
2023-04-02T21:33:40.279Z,72.43
2023-04-02T21:35:51.034Z,74.40
2023-04-02T21:38:00.809Z,75.21
2023-04-02T21:40:12.717Z,75.04
2023-04-02T21:42:22.837Z,75.41
2023-04-02T21:44:32.681Z,76.09
2023-04-02T21:46:43.626Z,76.48
2023-04-02T21:48:54.988Z,76.15
2023-04-02T21:51:11.648Z,77.08
2023-04-02T21:53:21.367Z,78.29
2023-04-02T21:55:30.831Z,79.16
2023-04-02T21:57:41.454Z,80.17
2023-04-02T21:59:51.329Z,79.85
2023-04-02T22:02:01.834Z,78.78
2023-04-02T22:04:14.533Z,77.80
2023-04-02T22:06:25.474Z,78.14
2023-04-02T22:08:35.901Z,78.38
2023-04-02T22:10:46.320Z,79.43
2023-04-02T22:12:56.171Z,80.05
2023-04-02T22:15:06.049Z,78.69
2023-04-02T22:17:18.361Z,78.06
2023-04-02T22:19:28.754Z,77.65
2023-04-02T22:21:39.622Z,77.69
2023-04-02T22:23:51.905Z,77.47
2023-04-02T22:26:03.719Z,77.96
2023-04-02T22:28:14.133Z,76.14
2023-04-02T22:30:27.198Z,74.96
2023-04-02T22:32:37.226Z,74.84
2023-04-02T22:34:47.259Z,75.87
2023-04-02T22:36:58.138Z,75.84
2023-04-02T22:39:11.088Z,75.75
2023-04-02T22:41:22.678Z,75.49
2023-04-02T22:43:33.190Z,75.27
2023-04-02T22:45:46.311Z,74.77
2023-04-02T22:47:56.093Z,75.22
2023-04-02T22:50:06.396Z,76.00
2023-04-02T22:52:16.434Z,74.94
2023-04-02T22:54:26.336Z,74.51
2023-04-02T22:56:38.065Z,74.10
2023-04-02T22:58:48.015Z,72.95
2023-04-02T23:00:57.647Z,73.64
2023-04-02T23:03:07.879Z,73.94
2023-04-02T23:05:17.720Z,71.78
2023-04-02T23:07:27.760Z,72.35
2023-04-02T23:09:37.551Z,71.31
2023-04-02T23:11:47.585Z,70.38
2023-04-02T23:14:00.040Z,69.66
2023-04-02T23:16:09.562Z,69.07
2023-04-02T23:18:20.106Z,70.00
2023-04-02T23:20:30.432Z,71.09
2023-04-02T23:22:41.631Z,71.83
2023-04-02T23:24:54.982Z,72.58
2023-04-02T23:27:04.701Z,73.85
2023-04-02T23:29:14.660Z,74.59
2023-04-02T23:31:25.843Z,75.65
2023-04-02T23:33:36.519Z,77.63
2023-04-02T23:35:46.778Z,77.59
2023-04-02T23:37:57.523Z,77.81
2023-04-02T23:40:09.302Z,74.77
2023-04-02T23:42:19.211Z,74.00
2023-04-02T23:44:29.147Z,74.06
2023-04-02T23:46:40.358Z,72.06
2023-04-02T23:48:51.014Z,73.14
2023-04-02T23:51:01.144Z,72.74
2023-04-02T23:53:11.660Z,70.94
2023-04-02T23:55:22.259Z,72.77
2023-04-02T23:57:32.294Z,72.23
2023-04-02T23:59:42.150Z,73.26
